createdAt,value
2023-12-28T00:00:53.000Z,98191
2023-12-28T00:02:20.000Z,98196
2023-12-28T00:04:26.000Z,98207
2023-12-28T00:05:52.000Z,98211
2023-12-28T00:07:58.000Z,98208
2023-12-28T00:09:26.000Z,98201
2023-12-28T00:11:32.000Z,98205
2023-12-28T00:12:58.000Z,98201
2023-12-28T00:15:05.000Z,98206
2023-12-28T00:16:32.000Z,98212
2023-12-28T00:18:38.000Z,98212
2023-12-28T00:20:05.000Z,98206
2023-12-28T00:22:12.000Z,98206
2023-12-28T00:23:38.000Z,98205
2023-12-28T00:25:45.000Z,98209
2023-12-28T00:27:11.000Z,98204
2023-12-28T00:29:18.000Z,98219
2023-12-28T00:30:44.000Z,98208
2023-12-28T00:32:51.000Z,98210
2023-12-28T00:34:17.000Z,98206
2023-12-28T00:36:24.000Z,98209
2023-12-28T00:39:09.000Z,98211
2023-12-28T00:40:36.000Z,98219
2023-12-28T00:42:42.000Z,98229
2023-12-28T00:44:09.000Z,98224
2023-12-28T00:46:15.000Z,98234
2023-12-28T00:47:42.000Z,98239
2023-12-28T00:49:48.000Z,98238
2023-12-28T00:51:15.000Z,98235
2023-12-28T00:53:21.000Z,98246
2023-12-28T00:54:47.000Z,98246
2023-12-28T00:56:54.000Z,98239
2023-12-28T00:58:20.000Z,98237
2023-12-28T01:00:26.000Z,98241
2023-12-28T01:01:53.000Z,98232
2023-12-28T01:03:59.000Z,98229
2023-12-28T01:05:26.000Z,98233
2023-12-28T01:07:32.000Z,98224
2023-12-28T01:08:58.000Z,98225
2023-12-28T01:11:04.000Z,98225
2023-12-28T01:12:31.000Z,98222
2023-12-28T01:14:38.000Z,98221
2023-12-28T01:17:23.000Z,98232
2023-12-28T01:18:50.000Z,98224
2023-12-28T01:20:56.000Z,98227
2023-12-28T01:22:23.000Z,98219
2023-12-28T01:24:29.000Z,98227
2023-12-28T01:25:56.000Z,98234
2023-12-28T01:28:02.000Z,98234
2023-12-28T01:29:29.000Z,98239
2023-12-28T01:31:35.000Z,98244
2023-12-28T01:33:02.000Z,98240
2023-12-28T01:35:08.000Z,98233
2023-12-28T01:36:34.000Z,98223
2023-12-28T01:38:41.000Z,98223
2023-12-28T01:40:07.000Z,98237
2023-12-28T01:42:13.000Z,98253
2023-12-28T01:43:40.000Z,98237
2023-12-28T01:45:46.000Z,98250
2023-12-28T01:47:13.000Z,98253
2023-12-28T01:49:19.000Z,98254
2023-12-28T01:50:45.000Z,98250
2023-12-28T01:52:52.000Z,98250
2023-12-28T01:55:37.000Z,98241
2023-12-28T01:57:04.000Z,98233
2023-12-28T01:59:10.000Z,98243
2023-12-28T02:00:37.000Z,98250
2023-12-28T02:02:43.000Z,98259
2023-12-28T02:04:09.000Z,98254
2023-12-28T02:06:16.000Z,98276
2023-12-28T02:07:43.000Z,98273
2023-12-28T02:09:50.000Z,98262
2023-12-28T02:11:16.000Z,98262
2023-12-28T02:13:22.000Z,98266
2023-12-28T02:14:49.000Z,98277
2023-12-28T02:16:55.000Z,98264
2023-12-28T02:18:22.000Z,98270
2023-12-28T02:20:28.000Z,98278
2023-12-28T02:21:55.000Z,98276
2023-12-28T02:24:01.000Z,98271
2023-12-28T02:25:27.000Z,98263
2023-12-28T02:27:34.000Z,98285
2023-12-28T02:29:00.000Z,98286
2023-12-28T02:31:06.000Z,98280
2023-12-28T02:33:52.000Z,98287
2023-12-28T02:35:18.000Z,98302
2023-12-28T02:37:24.000Z,98302
2023-12-28T02:38:51.000Z,98295
2023-12-28T02:40:57.000Z,98281
2023-12-28T02:42:23.000Z,98276
2023-12-28T02:44:30.000Z,98271
2023-12-28T02:45:57.000Z,98278
2023-12-28T02:48:03.000Z,98282
2023-12-28T02:49:31.000Z,98290
2023-12-28T02:51:37.000Z,98276
2023-12-28T02:53:03.000Z,98279
2023-12-28T02:55:09.000Z,98265
2023-12-28T02:56:36.000Z,98267
2023-12-28T02:58:42.000Z,98275
2023-12-28T03:00:09.000Z,98279
2023-12-28T03:02:15.000Z,98274
2023-12-28T03:03:41.000Z,98276
2023-12-28T03:05:48.000Z,98291
2023-12-28T03:07:14.000Z,98291
2023-12-28T03:09:20.000Z,98297
2023-12-28T03:12:05.000Z,98300
2023-12-28T03:13:32.000Z,98302
2023-12-28T03:15:38.000Z,98306
2023-12-28T03:17:05.000Z,98301
2023-12-28T03:19:11.000Z,98296
2023-12-28T03:20:38.000Z,98302
2023-12-28T03:22:44.000Z,98298
2023-12-28T03:24:10.000Z,98283
2023-12-28T03:26:16.000Z,98284
2023-12-28T03:27:43.000Z,98281
2023-12-28T03:29:49.000Z,98279
2023-12-28T03:31:16.000Z,98282
2023-12-28T03:33:22.000Z,98277
2023-12-28T03:34:49.000Z,98273
2023-12-28T03:36:55.000Z,98279
2023-12-28T03:38:21.000Z,98281
2023-12-28T03:40:27.000Z,98290
2023-12-28T03:41:54.000Z,98295
2023-12-28T03:44:00.000Z,98287
2023-12-28T03:45:26.000Z,98286
2023-12-28T03:47:33.000Z,98295
2023-12-28T03:50:18.000Z,98308
2023-12-28T03:51:44.000Z,98322
2023-12-28T03:53:51.000Z,98308
2023-12-28T03:55:17.000Z,98306
2023-12-28T03:57:23.000Z,98304
2023-12-28T03:58:50.000Z,98312
2023-12-28T04:00:56.000Z,98308
2023-12-28T04:02:22.000Z,98318
2023-12-28T04:04:29.000Z,98323
2023-12-28T04:05:55.000Z,98312
2023-12-28T04:08:01.000Z,98315
2023-12-28T04:09:28.000Z,98317
2023-12-28T04:11:35.000Z,98316
2023-12-28T04:13:01.000Z,98320
2023-12-28T04:15:07.000Z,98317
2023-12-28T04:16:34.000Z,98315
2023-12-28T04:18:41.000Z,98326
2023-12-28T04:20:07.000Z,98320
2023-12-28T04:22:14.000Z,98310
2023-12-28T04:23:40.000Z,98325
2023-12-28T04:25:46.000Z,98313
2023-12-28T04:28:31.000Z,98323
2023-12-28T04:29:58.000Z,98320
2023-12-28T04:32:04.000Z,98307
2023-12-28T04:33:30.000Z,98328
2023-12-28T04:35:37.000Z,98343
2023-12-28T04:37:03.000Z,98335
2023-12-28T04:39:09.000Z,98333
2023-12-28T04:40:36.000Z,98349
2023-12-28T04:42:42.000Z,98345
2023-12-28T04:44:09.000Z,98336
2023-12-28T04:46:15.000Z,98343
2023-12-28T04:47:41.000Z,98336
2023-12-28T04:49:48.000Z,98353
2023-12-28T04:51:15.000Z,98363
2023-12-28T04:53:21.000Z,98356
2023-12-28T04:54:47.000Z,98359
2023-12-28T04:56:54.000Z,98357
2023-12-28T04:58:21.000Z,98356
2023-12-28T05:00:27.000Z,98357
2023-12-28T05:01:53.000Z,98351
2023-12-28T05:04:00.000Z,98337
2023-12-28T05:06:45.000Z,98346
2023-12-28T05:08:12.000Z,98343
2023-12-28T05:10:18.000Z,98340
2023-12-28T05:11:45.000Z,98343
2023-12-28T05:13:51.000Z,98341
2023-12-28T05:15:17.000Z,98345
2023-12-28T05:17:23.000Z,98339
2023-12-28T05:18:50.000Z,98337
2023-12-28T05:20:57.000Z,98337
2023-12-28T05:22:23.000Z,98353
2023-12-28T05:24:29.000Z,98358
2023-12-28T05:25:56.000Z,98364
2023-12-28T05:28:02.000Z,98355
2023-12-28T05:29:29.000Z,98351
2023-12-28T05:31:35.000Z,98345
2023-12-28T05:33:02.000Z,98344
2023-12-28T05:35:09.000Z,98350
2023-12-28T05:36:35.000Z,98344
2023-12-28T05:38:41.000Z,98352
2023-12-28T05:40:08.000Z,98343
2023-12-28T05:42:14.000Z,98345
2023-12-28T05:44:59.000Z,98356
2023-12-28T05:46:26.000Z,98354
2023-12-28T05:48:32.000Z,98349
2023-12-28T05:49:58.000Z,98345
2023-12-28T05:52:05.000Z,98330
2023-12-28T05:53:31.000Z,98332
2023-12-28T05:55:37.000Z,98325
2023-12-28T05:57:04.000Z,98315
2023-12-28T05:59:10.000Z,98314
2023-12-28T06:00:37.000Z,98316
2023-12-28T06:02:43.000Z,98313
2023-12-28T06:04:09.000Z,98310
2023-12-28T06:06:16.000Z,98303
2023-12-28T06:07:42.000Z,98305
2023-12-28T06:09:49.000Z,98308
2023-12-28T06:11:15.000Z,98305
2023-12-28T06:13:22.000Z,98306
2023-12-28T06:14:48.000Z,98305
2023-12-28T06:16:54.000Z,98309
2023-12-28T06:18:21.000Z,98301
2023-12-28T06:20:27.000Z,98300
2023-12-28T06:23:13.000Z,98316
2023-12-28T06:24:39.000Z,98317
2023-12-28T06:26:45.000Z,98319
2023-12-28T06:28:12.000Z,98327
2023-12-28T06:30:19.000Z,98330
2023-12-28T06:31:45.000Z,98326
2023-12-28T06:33:51.000Z,98333
2023-12-28T06:35:18.000Z,98327
2023-12-28T06:37:24.000Z,98327
2023-12-28T06:38:51.000Z,98329
2023-12-28T06:40:57.000Z,98327
2023-12-28T06:42:24.000Z,98321
2023-12-28T06:44:30.000Z,98320
2023-12-28T06:45:57.000Z,98326
2023-12-28T06:48:03.000Z,98331
2023-12-28T06:49:30.000Z,98339
2023-12-28T06:51:36.000Z,98334
2023-12-28T06:53:03.000Z,98337
2023-12-28T06:55:09.000Z,98337
2023-12-28T06:56:36.000Z,98345
2023-12-28T06:58:42.000Z,98347
2023-12-28T07:01:27.000Z,98360
2023-12-28T07:02:54.000Z,98352
2023-12-28T07:05:00.000Z,98363
2023-12-28T07:06:27.000Z,98366
2023-12-28T07:08:33.000Z,98367
2023-12-28T07:10:03.000Z,98360
2023-12-28T07:12:09.000Z,98369
2023-12-28T07:13:35.000Z,98377
2023-12-28T07:15:42.000Z,98375
2023-12-28T07:17:09.000Z,98381
2023-12-28T07:19:15.000Z,98368
2023-12-28T07:20:41.000Z,98368
2023-12-28T07:22:48.000Z,98376
2023-12-28T07:24:14.000Z,98376
2023-12-28T07:26:21.000Z,98383
2023-12-28T07:27:47.000Z,98383
2023-12-28T07:29:53.000Z,98375
2023-12-28T07:31:20.000Z,98375
2023-12-28T07:33:26.000Z,98383
2023-12-28T07:34:53.000Z,98391
2023-12-28T07:36:59.000Z,98387
2023-12-28T07:39:45.000Z,98386
2023-12-28T07:41:11.000Z,98386
2023-12-28T07:43:17.000Z,98389
2023-12-28T07:44:44.000Z,98389
2023-12-28T07:46:51.000Z,98388
2023-12-28T07:48:17.000Z,98392
2023-12-28T07:50:24.000Z,98397
2023-12-28T07:51:50.000Z,98388
2023-12-28T07:53:57.000Z,98393
2023-12-28T07:55:23.000Z,98407
2023-12-28T07:57:29.000Z,98412
2023-12-28T07:58:56.000Z,98408
2023-12-28T08:01:02.000Z,98395
2023-12-28T08:02:29.000Z,98400
2023-12-28T08:04:35.000Z,98393
2023-12-28T08:06:02.000Z,98379
2023-12-28T08:08:08.000Z,98373
2023-12-28T08:09:35.000Z,98367
2023-12-28T08:11:41.000Z,98374
2023-12-28T08:13:07.000Z,98371
2023-12-28T08:15:14.000Z,98369
2023-12-28T08:17:59.000Z,98371
2023-12-28T08:19:26.000Z,98366
2023-12-28T08:21:33.000Z,98371
2023-12-28T08:22:59.000Z,98377
2023-12-28T08:25:23.000Z,98369
2023-12-28T08:26:49.000Z,98371
2023-12-28T08:28:56.000Z,98378
2023-12-28T08:30:22.000Z,98370
2023-12-28T08:32:28.000Z,98379
2023-12-28T08:33:55.000Z,98381
2023-12-28T08:36:02.000Z,98376
2023-12-28T08:37:28.000Z,98374
2023-12-28T08:39:35.000Z,98372
2023-12-28T08:41:01.000Z,98363
2023-12-28T08:43:07.000Z,98373
2023-12-28T08:44:34.000Z,98377
2023-12-28T08:46:40.000Z,98387
2023-12-28T08:48:07.000Z,98375
2023-12-28T08:50:13.000Z,98370
2023-12-28T08:51:39.000Z,98387
2023-12-28T08:53:50.000Z,98388
2023-12-28T08:56:35.000Z,98394
2023-12-28T08:58:02.000Z,98393
2023-12-28T09:00:09.000Z,98396
2023-12-28T09:01:35.000Z,98393
2023-12-28T09:03:42.000Z,98397
2023-12-28T09:05:08.000Z,98406
2023-12-28T09:07:15.000Z,98407
2023-12-28T09:08:41.000Z,98403
2023-12-28T09:10:47.000Z,98409
2023-12-28T09:12:14.000Z,98405
2023-12-28T09:14:21.000Z,98414
2023-12-28T09:15:47.000Z,98413
2023-12-28T09:17:53.000Z,98413
2023-12-28T09:19:20.000Z,98415
2023-12-28T09:21:27.000Z,98424
2023-12-28T09:22:53.000Z,98421
2023-12-28T09:25:00.000Z,98427
2023-12-28T09:26:26.000Z,98435
2023-12-28T09:28:33.000Z,98428
2023-12-28T09:29:59.000Z,98427
2023-12-28T09:32:06.000Z,98420
2023-12-28T09:34:51.000Z,98423
2023-12-28T09:36:18.000Z,98425
2023-12-28T09:38:24.000Z,98428
2023-12-28T09:39:50.000Z,98436
2023-12-28T09:41:57.000Z,98429
2023-12-28T09:43:23.000Z,98425
2023-12-28T09:45:29.000Z,98420
2023-12-28T09:46:56.000Z,98425
2023-12-28T09:49:02.000Z,98422
2023-12-28T09:50:29.000Z,98422
2023-12-28T09:52:35.000Z,98422
2023-12-28T09:54:02.000Z,98424
2023-12-28T09:56:08.000Z,98445
2023-12-28T09:57:35.000Z,98441
2023-12-28T09:59:41.000Z,98441
2023-12-28T10:01:07.000Z,98432
2023-12-28T10:03:14.000Z,98439
2023-12-28T10:04:40.000Z,98443
2023-12-28T10:06:47.000Z,98445
2023-12-28T10:08:13.000Z,98446
2023-12-28T10:10:19.000Z,98447
2023-12-28T10:13:05.000Z,98455
2023-12-28T10:14:31.000Z,98459
2023-12-28T10:16:38.000Z,98457
2023-12-28T10:18:04.000Z,98449
2023-12-28T10:20:11.000Z,98445
2023-12-28T10:21:37.000Z,98436
2023-12-28T10:23:43.000Z,98437
2023-12-28T10:25:10.000Z,98443
2023-12-28T10:27:16.000Z,98451
2023-12-28T10:28:43.000Z,98447
2023-12-28T10:30:49.000Z,98450
2023-12-28T10:32:16.000Z,98448
2023-12-28T10:34:23.000Z,98442
2023-12-28T10:35:50.000Z,98451
2023-12-28T10:37:57.000Z,98448
2023-12-28T10:39:23.000Z,98442
2023-12-28T10:41:29.000Z,98448
2023-12-28T10:42:56.000Z,98448
2023-12-28T10:45:02.000Z,98442
2023-12-28T10:46:29.000Z,98442
2023-12-28T10:48:35.000Z,98446
2023-12-28T10:51:20.000Z,98438
2023-12-28T10:52:47.000Z,98433
2023-12-28T10:54:53.000Z,98430
2023-12-28T10:56:20.000Z,98425
2023-12-28T10:58:26.000Z,98429
2023-12-28T10:59:53.000Z,98423
2023-12-28T11:01:59.000Z,98420
2023-12-28T11:03:26.000Z,98427
2023-12-28T11:05:32.000Z,98421
2023-12-28T11:06:59.000Z,98416
2023-12-28T11:09:05.000Z,98413
2023-12-28T11:10:35.000Z,98420
2023-12-28T11:12:41.000Z,98404
2023-12-28T11:14:08.000Z,98417
2023-12-28T11:16:14.000Z,98419
2023-12-28T11:17:41.000Z,98413
2023-12-28T11:19:47.000Z,98407
2023-12-28T11:21:13.000Z,98417
2023-12-28T11:23:19.000Z,98413
2023-12-28T11:24:46.000Z,98413
2023-12-28T11:26:52.000Z,98408
2023-12-28T11:29:37.000Z,98408
2023-12-28T11:31:04.000Z,98405
2023-12-28T11:33:10.000Z,98401
2023-12-28T11:34:37.000Z,98403
2023-12-28T11:36:43.000Z,98399
2023-12-28T11:38:10.000Z,98406
2023-12-28T11:40:16.000Z,98390
2023-12-28T11:41:43.000Z,98399
2023-12-28T11:43:49.000Z,98392
2023-12-28T11:45:15.000Z,98402
2023-12-28T11:47:21.000Z,98399
2023-12-28T11:48:48.000Z,98399
2023-12-28T11:50:54.000Z,98396
2023-12-28T11:52:21.000Z,98388
2023-12-28T11:54:27.000Z,98387
2023-12-28T11:55:54.000Z,98391
2023-12-28T11:58:01.000Z,98392
2023-12-28T11:59:27.000Z,98395
2023-12-28T12:01:34.000Z,98395
2023-12-28T12:03:00.000Z,98402
2023-12-28T12:05:07.000Z,98397
2023-12-28T12:07:53.000Z,98393
2023-12-28T12:09:19.000Z,98387
2023-12-28T12:11:26.000Z,98388
2023-12-28T12:12:52.000Z,98385
2023-12-28T12:14:58.000Z,98381
2023-12-28T12:16:25.000Z,98389
2023-12-28T12:18:31.000Z,98384
2023-12-28T12:19:57.000Z,98374
2023-12-28T12:22:04.000Z,98371
2023-12-28T12:23:31.000Z,98369
2023-12-28T12:25:37.000Z,98388
2023-12-28T12:27:04.000Z,98382
2023-12-28T12:29:10.000Z,98380
2023-12-28T12:30:36.000Z,98375
2023-12-28T12:32:43.000Z,98386
2023-12-28T12:34:09.000Z,98374
2023-12-28T12:36:16.000Z,98366
2023-12-28T12:37:42.000Z,98366
2023-12-28T12:39:48.000Z,98352
2023-12-28T12:41:15.000Z,98348
2023-12-28T12:43:21.000Z,98343
2023-12-28T12:46:06.000Z,98330
2023-12-28T12:47:33.000Z,98334
2023-12-28T12:49:39.000Z,98328
2023-12-28T12:51:06.000Z,98326
2023-12-28T12:53:12.000Z,98327
2023-12-28T12:54:39.000Z,98336
2023-12-28T12:56:45.000Z,98323
2023-12-28T12:58:12.000Z,98325
2023-12-28T13:00:18.000Z,98327
2023-12-28T13:01:44.000Z,98321
2023-12-28T13:03:51.000Z,98323
2023-12-28T13:05:18.000Z,98307
2023-12-28T13:07:24.000Z,98312
2023-12-28T13:08:51.000Z,98309
2023-12-28T13:10:57.000Z,98323
2023-12-28T13:12:23.000Z,98319
2023-12-28T13:14:30.000Z,98320
2023-12-28T13:15:56.000Z,98314
2023-12-28T13:18:03.000Z,98307
2023-12-28T13:19:30.000Z,98320
2023-12-28T13:21:36.000Z,98318
2023-12-28T13:24:22.000Z,98317
2023-12-28T13:25:48.000Z,98326
2023-12-28T13:27:55.000Z,98322
2023-12-28T13:29:21.000Z,98318
2023-12-28T13:31:28.000Z,98324
2023-12-28T13:32:54.000Z,98309
2023-12-28T13:35:01.000Z,98306
2023-12-28T13:36:30.000Z,98310
2023-12-28T13:38:37.000Z,98305
2023-12-28T13:40:04.000Z,98306
2023-12-28T13:42:10.000Z,98314
2023-12-28T13:43:37.000Z,98313
2023-12-28T13:45:43.000Z,98307
2023-12-28T13:47:09.000Z,98311
2023-12-28T13:49:15.000Z,98300
2023-12-28T13:50:42.000Z,98295
2023-12-28T13:52:48.000Z,98297
2023-12-28T13:54:15.000Z,98299
2023-12-28T13:56:21.000Z,98292
2023-12-28T13:57:48.000Z,98287
2023-12-28T13:59:54.000Z,98283
2023-12-28T14:02:42.000Z,98291
2023-12-28T14:04:09.000Z,98283
2023-12-28T14:06:15.000Z,98284
2023-12-28T14:07:42.000Z,98286
2023-12-28T14:09:48.000Z,98287
2023-12-28T14:11:14.000Z,98289
2023-12-28T14:13:21.000Z,98286
2023-12-28T14:14:47.000Z,98283
2023-12-28T14:16:53.000Z,98275
2023-12-28T14:18:20.000Z,98278
2023-12-28T14:20:26.000Z,98274
2023-12-28T14:21:53.000Z,98275
2023-12-28T14:23:59.000Z,98267
2023-12-28T14:25:26.000Z,98271
2023-12-28T14:27:32.000Z,98273
2023-12-28T14:28:59.000Z,98277
2023-12-28T14:31:05.000Z,98270
2023-12-28T14:32:32.000Z,98275
2023-12-28T14:34:38.000Z,98274
2023-12-28T14:36:05.000Z,98279
2023-12-28T14:38:11.000Z,98279
2023-12-28T14:40:56.000Z,98274
2023-12-28T14:42:23.000Z,98274
2023-12-28T14:44:29.000Z,98276
2023-12-28T14:45:56.000Z,98275
2023-12-28T14:48:02.000Z,98285
2023-12-28T14:49:29.000Z,98282
2023-12-28T14:51:35.000Z,98279
2023-12-28T14:53:02.000Z,98275
2023-12-28T14:55:08.000Z,98276
2023-12-28T14:56:35.000Z,98270
2023-12-28T14:58:54.000Z,98269
2023-12-28T15:00:21.000Z,98262
2023-12-28T15:02:27.000Z,98261
2023-12-28T15:03:54.000Z,98261
2023-12-28T15:06:00.000Z,98263
2023-12-28T15:07:27.000Z,98268
2023-12-28T15:09:33.000Z,98261
2023-12-28T15:10:59.000Z,98264
2023-12-28T15:13:05.000Z,98268
2023-12-28T15:14:32.000Z,98269
2023-12-28T15:16:38.000Z,98284
2023-12-28T15:19:23.000Z,98279
2023-12-28T15:20:50.000Z,98278
2023-12-28T15:22:56.000Z,98277
2023-12-28T15:24:22.000Z,98274
2023-12-28T15:26:29.000Z,98283
2023-12-28T15:27:55.000Z,98281
2023-12-28T15:30:01.000Z,98280
2023-12-28T15:31:28.000Z,98275
2023-12-28T15:33:34.000Z,98272
2023-12-28T15:35:01.000Z,98281
2023-12-28T15:37:12.000Z,98282
2023-12-28T15:38:39.000Z,98285
2023-12-28T15:40:46.000Z,98289
2023-12-28T15:42:12.000Z,98281
2023-12-28T15:44:19.000Z,98283
2023-12-28T15:45:45.000Z,98283
2023-12-28T15:47:51.000Z,98285
2023-12-28T15:49:18.000Z,98288
2023-12-28T15:51:24.000Z,98280
2023-12-28T15:52:51.000Z,98283
2023-12-28T15:54:57.000Z,98287
2023-12-28T15:57:42.000Z,98277
2023-12-28T15:59:09.000Z,98278
2023-12-28T16:01:15.000Z,98271
2023-12-28T16:02:42.000Z,98278
2023-12-28T16:04:48.000Z,98276
2023-12-28T16:06:15.000Z,98279
2023-12-28T16:08:21.000Z,98276
2023-12-28T16:09:47.000Z,98278
2023-12-28T16:11:54.000Z,98270
2023-12-28T16:13:20.000Z,98274
2023-12-28T16:15:26.000Z,98275
2023-12-28T16:16:53.000Z,98272
2023-12-28T16:18:59.000Z,98277
2023-12-28T16:20:26.000Z,98282
2023-12-28T16:22:32.000Z,98278
2023-12-28T16:23:58.000Z,98277
2023-12-28T16:26:05.000Z,98285
2023-12-28T16:27:31.000Z,98288
2023-12-28T16:29:37.000Z,98290
2023-12-28T16:31:04.000Z,98292
2023-12-28T16:33:10.000Z,98292
2023-12-28T16:35:55.000Z,98292
2023-12-28T16:37:22.000Z,98290
2023-12-28T16:39:28.000Z,98292
2023-12-28T16:40:55.000Z,98294
2023-12-28T16:43:01.000Z,98285
2023-12-28T16:44:28.000Z,98293
2023-12-28T16:46:35.000Z,98298
2023-12-28T16:48:01.000Z,98287
2023-12-28T16:50:09.000Z,98289
2023-12-28T16:51:35.000Z,98284
2023-12-28T16:53:42.000Z,98277
2023-12-28T16:55:08.000Z,98272
2023-12-28T16:57:15.000Z,98277
2023-12-28T16:58:41.000Z,98264
2023-12-28T17:00:48.000Z,98270
2023-12-28T17:02:14.000Z,98266
2023-12-28T17:04:20.000Z,98268
2023-12-28T17:05:47.000Z,98263
2023-12-28T17:07:55.000Z,98265
2023-12-28T17:09:21.000Z,98259
2023-12-28T17:11:28.000Z,98264
2023-12-28T17:14:13.000Z,98269
2023-12-28T17:15:40.000Z,98264
2023-12-28T17:17:46.000Z,98267
2023-12-28T17:19:12.000Z,98266
2023-12-28T17:21:19.000Z,98259
2023-12-28T17:22:45.000Z,98264
2023-12-28T17:24:51.000Z,98253
2023-12-28T17:26:18.000Z,98272
2023-12-28T17:28:24.000Z,98258
2023-12-28T17:29:51.000Z,98259
2023-12-28T17:31:57.000Z,98253
2023-12-28T17:33:24.000Z,98260
2023-12-28T17:35:30.000Z,98257
2023-12-28T17:36:57.000Z,98257
2023-12-28T17:39:03.000Z,98251
2023-12-28T17:40:30.000Z,98257
2023-12-28T17:42:36.000Z,98254
2023-12-28T17:44:03.000Z,98257
2023-12-28T17:46:10.000Z,98258
2023-12-28T17:47:36.000Z,98268
2023-12-28T17:49:43.000Z,98259
2023-12-28T17:52:28.000Z,98266
2023-12-28T17:53:55.000Z,98252
2023-12-28T17:56:01.000Z,98260
2023-12-28T17:57:28.000Z,98260
2023-12-28T17:59:34.000Z,98256
2023-12-28T18:01:00.000Z,98268
2023-12-28T18:03:07.000Z,98266
2023-12-28T18:04:33.000Z,98259
2023-12-28T18:06:40.000Z,98253
2023-12-28T18:08:06.000Z,98257
2023-12-28T18:10:12.000Z,98266
2023-12-28T18:11:39.000Z,98271
2023-12-28T18:13:45.000Z,98267
2023-12-28T18:15:12.000Z,98270
2023-12-28T18:17:18.000Z,98268
2023-12-28T18:18:45.000Z,98268
2023-12-28T18:20:51.000Z,98265
2023-12-28T18:22:18.000Z,98273
2023-12-28T18:24:24.000Z,98269
2023-12-28T18:25:50.000Z,98272
2023-12-28T18:27:56.000Z,98251
2023-12-28T18:30:42.000Z,98254
2023-12-28T18:32:09.000Z,98250
2023-12-28T18:34:15.000Z,98263
2023-12-28T18:35:41.000Z,98256
2023-12-28T18:37:48.000Z,98262
2023-12-28T18:39:14.000Z,98254
2023-12-28T18:41:20.000Z,98262
2023-12-28T18:42:47.000Z,98266
2023-12-28T18:44:53.000Z,98261
2023-12-28T18:46:20.000Z,98266
2023-12-28T18:48:26.000Z,98266
2023-12-28T18:49:52.000Z,98265
2023-12-28T18:51:59.000Z,98260
2023-12-28T18:53:25.000Z,98275
2023-12-28T18:55:32.000Z,98272
2023-12-28T18:56:58.000Z,98271
2023-12-28T18:59:04.000Z,98278
2023-12-28T19:00:31.000Z,98279
2023-12-28T19:02:37.000Z,98289
2023-12-28T19:04:04.000Z,98280
2023-12-28T19:06:10.000Z,98279
2023-12-28T19:08:56.000Z,98280
2023-12-28T19:10:23.000Z,98272
2023-12-28T19:12:29.000Z,98277
2023-12-28T19:13:56.000Z,98281
2023-12-28T19:16:02.000Z,98277
2023-12-28T19:17:29.000Z,98275
2023-12-28T19:19:35.000Z,98273
2023-12-28T19:21:02.000Z,98279
2023-12-28T19:23:08.000Z,98293
2023-12-28T19:24:35.000Z,98280
2023-12-28T19:26:41.000Z,98275
2023-12-28T19:28:08.000Z,98280
2023-12-28T19:30:14.000Z,98280
2023-12-28T19:31:41.000Z,98272
2023-12-28T19:33:48.000Z,98282
2023-12-28T19:35:15.000Z,98280
2023-12-28T19:37:23.000Z,98283
2023-12-28T19:38:49.000Z,98284
2023-12-28T19:40:56.000Z,98275
2023-12-28T19:42:22.000Z,98285
2023-12-28T19:44:28.000Z,98280
2023-12-28T19:47:13.000Z,98284
2023-12-28T19:48:40.000Z,98287
2023-12-28T19:50:46.000Z,98284
2023-12-28T19:52:12.000Z,98288
2023-12-28T19:54:19.000Z,98289
2023-12-28T19:55:45.000Z,98290
2023-12-28T19:57:51.000Z,98292
2023-12-28T19:59:18.000Z,98285
2023-12-28T20:01:24.000Z,98278
2023-12-28T20:02:50.000Z,98289
2023-12-28T20:04:57.000Z,98282
2023-12-28T20:06:23.000Z,98282
2023-12-28T20:08:30.000Z,98291
2023-12-28T20:09:56.000Z,98280
2023-12-28T20:12:03.000Z,98290
2023-12-28T20:13:29.000Z,98275
2023-12-28T20:15:35.000Z,98281
2023-12-28T20:17:02.000Z,98276
2023-12-28T20:19:08.000Z,98275
2023-12-28T20:20:35.000Z,98273
2023-12-28T20:22:41.000Z,98274
2023-12-28T20:25:26.000Z,98265
2023-12-28T20:26:53.000Z,98269
2023-12-28T20:28:59.000Z,98272
2023-12-28T20:30:25.000Z,98273
2023-12-28T20:32:31.000Z,98272
2023-12-28T20:33:58.000Z,98267
2023-12-28T20:36:05.000Z,98268
2023-12-28T20:37:31.000Z,98264
2023-12-28T20:39:37.000Z,98267
2023-12-28T20:41:04.000Z,98269
2023-12-28T20:43:10.000Z,98261
2023-12-28T20:44:37.000Z,98254
2023-12-28T20:46:43.000Z,98260
2023-12-28T20:48:09.000Z,98255
2023-12-28T20:50:16.000Z,98258
2023-12-28T20:51:42.000Z,98256
2023-12-28T20:53:48.000Z,98261
2023-12-28T20:55:15.000Z,98254
2023-12-28T20:57:21.000Z,98254
2023-12-28T20:58:48.000Z,98255
2023-12-28T21:00:54.000Z,98261
2023-12-28T21:03:39.000Z,98253
2023-12-28T21:05:06.000Z,98251
2023-12-28T21:07:12.000Z,98249
2023-12-28T21:08:39.000Z,98254
2023-12-28T21:10:45.000Z,98242
2023-12-28T21:12:16.000Z,98246
2023-12-28T21:14:22.000Z,98244
2023-12-28T21:15:49.000Z,98246
2023-12-28T21:17:55.000Z,98242
2023-12-28T21:19:23.000Z,98246
2023-12-28T21:21:30.000Z,98240
2023-12-28T21:22:57.000Z,98238
2023-12-28T21:25:03.000Z,98241
2023-12-28T21:26:30.000Z,98240
2023-12-28T21:28:36.000Z,98240
2023-12-28T21:30:02.000Z,98233
2023-12-28T21:32:08.000Z,98230
2023-12-28T21:33:35.000Z,98234
2023-12-28T21:35:42.000Z,98231
2023-12-28T21:37:08.000Z,98230
2023-12-28T21:39:15.000Z,98230
2023-12-28T21:42:00.000Z,98233
2023-12-28T21:43:27.000Z,98240
2023-12-28T21:45:33.000Z,98236
2023-12-28T21:46:59.000Z,98234
2023-12-28T21:49:06.000Z,98229
2023-12-28T21:50:33.000Z,98226
2023-12-28T21:52:39.000Z,98226
2023-12-28T21:54:05.000Z,98222
2023-12-28T21:56:11.000Z,98227
2023-12-28T21:57:38.000Z,98234
2023-12-28T21:59:44.000Z,98232
2023-12-28T22:01:11.000Z,98225
2023-12-28T22:03:17.000Z,98226
2023-12-28T22:04:44.000Z,98225
2023-12-28T22:06:50.000Z,98233
2023-12-28T22:08:17.000Z,98231
2023-12-28T22:10:23.000Z,98234
2023-12-28T22:11:50.000Z,98242
2023-12-28T22:13:56.000Z,98242
2023-12-28T22:15:23.000Z,98246
2023-12-28T22:17:29.000Z,98237
2023-12-28T22:20:15.000Z,98238
2023-12-28T22:21:41.000Z,98233
2023-12-28T22:23:47.000Z,98238
2023-12-28T22:25:14.000Z,98236
2023-12-28T22:27:20.000Z,98239
2023-12-28T22:28:47.000Z,98227
2023-12-28T22:30:53.000Z,98229
2023-12-28T22:32:20.000Z,98230
2023-12-28T22:34:27.000Z,98238
2023-12-28T22:35:53.000Z,98232
2023-12-28T22:37:59.000Z,98232
2023-12-28T22:39:26.000Z,98229
2023-12-28T22:41:33.000Z,98235
2023-12-28T22:42:59.000Z,98224
2023-12-28T22:45:05.000Z,98232
2023-12-28T22:46:32.000Z,98231
2023-12-28T22:48:38.000Z,98237
2023-12-28T22:50:05.000Z,98239
2023-12-28T22:52:11.000Z,98229
2023-12-28T22:53:43.000Z,98227
2023-12-28T22:55:49.000Z,98221
2023-12-28T22:58:34.000Z,98219
2023-12-28T23:00:01.000Z,98215
2023-12-28T23:02:07.000Z,98213
2023-12-28T23:03:33.000Z,98216
2023-12-28T23:05:39.000Z,98222
2023-12-28T23:07:06.000Z,98212
2023-12-28T23:09:12.000Z,98214
2023-12-28T23:10:39.000Z,98207
2023-12-28T23:12:49.000Z,98216
2023-12-28T23:14:16.000Z,98221
2023-12-28T23:16:22.000Z,98227
2023-12-28T23:17:49.000Z,98220
2023-12-28T23:19:58.000Z,98219
2023-12-28T23:21:25.000Z,98221
2023-12-28T23:23:31.000Z,98216
2023-12-28T23:24:57.000Z,98223
2023-12-28T23:27:04.000Z,98220